sensor_id;sensor_type;location;lat;lon;timestamp;P1;durP1;ratioP1;P2;durP2;ratioP2
6463;SDS011;3265;42.694;23.282;2023-04-24T00:01:10;11.30;;;7.87;;
6463;SDS011;3265;42.694;23.282;2023-04-24T00:03:38;14.17;;;8.20;;
6463;SDS011;3265;42.694;23.282;2023-04-24T00:06:05;13.37;;;7.90;;
6463;SDS011;3265;42.694;23.282;2023-04-24T00:08:33;13.83;;;8.17;;
6463;SDS011;3265;42.694;23.282;2023-04-24T00:11:00;15.97;;;9.37;;
6463;SDS011;3265;42.694;23.282;2023-04-24T00:13:27;13.50;;;8.63;;
6463;SDS011;3265;42.694;23.282;2023-04-24T00:15:55;15.30;;;9.10;;
6463;SDS011;3265;42.694;23.282;2023-04-24T00:18:22;14.13;;;9.37;;
6463;SDS011;3265;42.694;23.282;2023-04-24T00:20:49;17.83;;;9.13;;
6463;SDS011;3265;42.694;23.282;2023-04-24T00:23:16;16.67;;;10.07;;
6463;SDS011;3265;42.694;23.282;2023-04-24T00:25:43;17.13;;;10.70;;
6463;SDS011;3265;42.694;23.282;2023-04-24T00:28:10;16.43;;;10.10;;
6463;SDS011;3265;42.694;23.282;2023-04-24T00:30:36;17.70;;;10.27;;
6463;SDS011;3265;42.694;23.282;2023-04-24T00:33:04;14.73;;;10.60;;
6463;SDS011;3265;42.694;23.282;2023-04-24T00:35:31;19.47;;;10.57;;
6463;SDS011;3265;42.694;23.282;2023-04-24T00:37:58;14.80;;;10.13;;
6463;SDS011;3265;42.694;23.282;2023-04-24T00:40:25;17.17;;;10.20;;
6463;SDS011;3265;42.694;23.282;2023-04-24T00:42:53;20.67;;;10.47;;
6463;SDS011;3265;42.694;23.282;2023-04-24T00:45:20;14.87;;;10.57;;
6463;SDS011;3265;42.694;23.282;2023-04-24T00:47:47;18.53;;;10.80;;
6463;SDS011;3265;42.694;23.282;2023-04-24T00:50:16;15.27;;;10.37;;
6463;SDS011;3265;42.694;23.282;2023-04-24T00:52:44;20.83;;;10.67;;
6463;SDS011;3265;42.694;23.282;2023-04-24T00:55:11;22.13;;;10.17;;
6463;SDS011;3265;42.694;23.282;2023-04-24T00:57:38;17.13;;;9.40;;
6463;SDS011;3265;42.694;23.282;2023-04-24T01:00:06;14.77;;;9.00;;
6463;SDS011;3265;42.694;23.282;2023-04-24T01:02:36;11.70;;;8.67;;
6463;SDS011;3265;42.694;23.282;2023-04-24T01:05:05;15.27;;;9.00;;
6463;SDS011;3265;42.694;23.282;2023-04-24T01:07:35;19.03;;;9.30;;
6463;SDS011;3265;42.694;23.282;2023-04-24T01:10:03;15.40;;;9.00;;
6463;SDS011;3265;42.694;23.282;2023-04-24T01:12:30;14.40;;;9.73;;
6463;SDS011;3265;42.694;23.282;2023-04-24T01:14:57;15.63;;;10.10;;
6463;SDS011;3265;42.694;23.282;2023-04-24T01:17:24;18.53;;;9.73;;
6463;SDS011;3265;42.694;23.282;2023-04-24T01:19:51;16.67;;;9.63;;
6463;SDS011;3265;42.694;23.282;2023-04-24T01:22:23;19.53;;;9.60;;
6463;SDS011;3265;42.694;23.282;2023-04-24T01:25:15;15.77;;;9.57;;
6463;SDS011;3265;42.694;23.282;2023-04-24T01:27:42;16.87;;;11.40;;
6463;SDS011;3265;42.694;23.282;2023-04-24T01:30:10;19.70;;;10.83;;
6463;SDS011;3265;42.694;23.282;2023-04-24T01:32:37;17.03;;;11.20;;
6463;SDS011;3265;42.694;23.282;2023-04-24T01:35:05;13.63;;;9.33;;
6463;SDS011;3265;42.694;23.282;2023-04-24T01:37:35;15.83;;;9.97;;
6463;SDS011;3265;42.694;23.282;2023-04-24T01:40:03;12.37;;;9.10;;
6463;SDS011;3265;42.694;23.282;2023-04-24T01:42:31;18.07;;;8.97;;
6463;SDS011;3265;42.694;23.282;2023-04-24T01:44:58;11.93;;;7.43;;
6463;SDS011;3265;42.694;23.282;2023-04-24T01:47:25;11.77;;;7.80;;
6463;SDS011;3265;42.694;23.282;2023-04-24T01:49:52;14.40;;;7.33;;
6463;SDS011;3265;42.694;23.282;2023-04-24T01:52:19;9.37;;;7.43;;
6463;SDS011;3265;42.694;23.282;2023-04-24T01:54:48;11.63;;;7.90;;
6463;SDS011;3265;42.694;23.282;2023-04-24T01:57:14;11.73;;;7.33;;
6463;SDS011;3265;42.694;23.282;2023-04-24T01:59:42;11.13;;;6.97;;
6463;SDS011;3265;42.694;23.282;2023-04-24T02:02:09;11.57;;;6.83;;
6463;SDS011;3265;42.694;23.282;2023-04-24T02:04:36;9.83;;;7.20;;
6463;SDS011;3265;42.694;23.282;2023-04-24T02:07:03;9.83;;;6.87;;
6463;SDS011;3265;42.694;23.282;2023-04-24T02:09:30;13.53;;;7.20;;
6463;SDS011;3265;42.694;23.282;2023-04-24T02:11:58;13.20;;;7.50;;
6463;SDS011;3265;42.694;23.282;2023-04-24T02:17:17;11.50;;;7.40;;
6463;SDS011;3265;42.694;23.282;2023-04-24T02:19:44;12.20;;;7.90;;
6463;SDS011;3265;42.694;23.282;2023-04-24T02:22:11;18.10;;;8.33;;
6463;SDS011;3265;42.694;23.282;2023-04-24T02:24:38;12.17;;;9.47;;
6463;SDS011;3265;42.694;23.282;2023-04-24T02:27:06;13.63;;;10.03;;
6463;SDS011;3265;42.694;23.282;2023-04-24T02:29:33;14.73;;;10.30;;
6463;SDS011;3265;42.694;23.282;2023-04-24T02:32:00;15.20;;;9.70;;
6463;SDS011;3265;42.694;23.282;2023-04-24T02:34:27;13.43;;;9.93;;
6463;SDS011;3265;42.694;23.282;2023-04-24T02:36:54;12.93;;;10.13;;
6463;SDS011;3265;42.694;23.282;2023-04-24T02:39:21;13.50;;;9.87;;
6463;SDS011;3265;42.694;23.282;2023-04-24T02:41:48;15.47;;;10.30;;
6463;SDS011;3265;42.694;23.282;2023-04-24T02:44:16;15.40;;;9.83;;
6463;SDS011;3265;42.694;23.282;2023-04-24T02:46:43;17.67;;;10.80;;
6463;SDS011;3265;42.694;23.282;2023-04-24T02:49:10;13.17;;;10.03;;
6463;SDS011;3265;42.694;23.282;2023-04-24T02:51:37;12.17;;;9.10;;
6463;SDS011;3265;42.694;23.282;2023-04-24T02:54:06;16.90;;;10.27;;
6463;SDS011;3265;42.694;23.282;2023-04-24T02:56:33;18.13;;;10.23;;
6463;SDS011;3265;42.694;23.282;2023-04-24T02:59:00;15.93;;;10.53;;
6463;SDS011;3265;42.694;23.282;2023-04-24T03:01:28;16.37;;;12.30;;
6463;SDS011;3265;42.694;23.282;2023-04-24T03:03:55;20.00;;;11.73;;
6463;SDS011;3265;42.694;23.282;2023-04-24T03:06:23;19.00;;;9.93;;
6463;SDS011;3265;42.694;23.282;2023-04-24T03:08:49;17.10;;;10.90;;
6463;SDS011;3265;42.694;23.282;2023-04-24T03:11:16;19.93;;;13.27;;
6463;SDS011;3265;42.694;23.282;2023-04-24T03:13:43;19.73;;;13.20;;
6463;SDS011;3265;42.694;23.282;2023-04-24T03:16:10;21.67;;;13.10;;
6463;SDS011;3265;42.694;23.282;2023-04-24T03:18:38;17.80;;;12.27;;
6463;SDS011;3265;42.694;23.282;2023-04-24T03:21:05;18.77;;;11.70;;
6463;SDS011;3265;42.694;23.282;2023-04-24T03:23:32;17.23;;;11.43;;
6463;SDS011;3265;42.694;23.282;2023-04-24T03:25:59;16.07;;;10.67;;
6463;SDS011;3265;42.694;23.282;2023-04-24T03:28:26;14.30;;;10.73;;
6463;SDS011;3265;42.694;23.282;2023-04-24T03:30:53;16.60;;;10.23;;
6463;SDS011;3265;42.694;23.282;2023-04-24T03:33:19;14.47;;;10.63;;
6463;SDS011;3265;42.694;23.282;2023-04-24T03:35:47;17.43;;;10.80;;
6463;SDS011;3265;42.694;23.282;2023-04-24T03:38:14;18.30;;;11.40;;
6463;SDS011;3265;42.694;23.282;2023-04-24T03:40:41;18.87;;;11.80;;
6463;SDS011;3265;42.694;23.282;2023-04-24T03:43:08;22.70;;;11.70;;
6463;SDS011;3265;42.694;23.282;2023-04-24T03:45:35;21.63;;;12.47;;
6463;SDS011;3265;42.694;23.282;2023-04-24T03:48:01;25.00;;;12.80;;
6463;SDS011;3265;42.694;23.282;2023-04-24T03:50:28;23.87;;;14.10;;
6463;SDS011;3265;42.694;23.282;2023-04-24T03:52:57;23.10;;;14.47;;
6463;SDS011;3265;42.694;23.282;2023-04-24T03:55:23;25.50;;;15.17;;
6463;SDS011;3265;42.694;23.282;2023-04-24T03:57:50;24.20;;;15.87;;
6463;SDS011;3265;42.694;23.282;2023-04-24T04:00:17;22.87;;;14.60;;
6463;SDS011;3265;42.694;23.282;2023-04-24T04:02:46;25.13;;;15.23;;
6463;SDS011;3265;42.694;23.282;2023-04-24T04:05:12;26.47;;;14.63;;
6463;SDS011;3265;42.694;23.282;2023-04-24T04:07:39;23.40;;;14.23;;
6463;SDS011;3265;42.694;23.282;2023-04-24T04:10:10;21.87;;;14.23;;
6463;SDS011;3265;42.694;23.282;2023-04-24T04:12:37;26.03;;;14.00;;
6463;SDS011;3265;42.694;23.282;2023-04-24T04:15:04;24.43;;;15.40;;
6463;SDS011;3265;42.694;23.282;2023-04-24T04:17:32;30.03;;;16.53;;
6463;SDS011;3265;42.694;23.282;2023-04-24T04:20:02;25.53;;;15.23;;
6463;SDS011;3265;42.694;23.282;2023-04-24T04:22:32;27.70;;;15.87;;
6463;SDS011;3265;42.694;23.282;2023-04-24T04:24:59;27.33;;;15.40;;
6463;SDS011;3265;42.694;23.282;2023-04-24T04:27:27;24.37;;;15.37;;
6463;SDS011;3265;42.694;23.282;2023-04-24T04:29:57;26.67;;;15.67;;
6463;SDS011;3265;42.694;23.282;2023-04-24T04:32:24;28.80;;;15.77;;
6463;SDS011;3265;42.694;23.282;2023-04-24T04:34:51;24.93;;;16.63;;
6463;SDS011;3265;42.694;23.282;2023-04-24T04:37:18;27.93;;;16.87;;
6463;SDS011;3265;42.694;23.282;2023-04-24T04:39:45;32.77;;;17.37;;
6463;SDS011;3265;42.694;23.282;2023-04-24T04:42:12;41.53;;;18.27;;
6463;SDS011;3265;42.694;23.282;2023-04-24T04:44:41;31.30;;;16.93;;
6463;SDS011;3265;42.694;23.282;2023-04-24T04:47:09;28.07;;;17.47;;
6463;SDS011;3265;42.694;23.282;2023-04-24T04:49:37;23.73;;;16.77;;
6463;SDS011;3265;42.694;23.282;2023-04-24T04:52:07;31.60;;;17.47;;
6463;SDS011;3265;42.694;23.282;2023-04-24T04:54:33;29.83;;;16.40;;
6463;SDS011;3265;42.694;23.282;2023-04-24T04:57:00;35.53;;;17.87;;
6463;SDS011;3265;42.694;23.282;2023-04-24T04:59:27;31.50;;;16.43;;
6463;SDS011;3265;42.694;23.282;2023-04-24T05:01:55;37.70;;;18.60;;
6463;SDS011;3265;42.694;23.282;2023-04-24T05:04:22;32.37;;;15.00;;
6463;SDS011;3265;42.694;23.282;2023-04-24T05:06:49;24.40;;;14.37;;
6463;SDS011;3265;42.694;23.282;2023-04-24T05:09:17;25.90;;;13.73;;
6463;SDS011;3265;42.694;23.282;2023-04-24T05:11:44;29.43;;;14.20;;
6463;SDS011;3265;42.694;23.282;2023-04-24T05:14:12;27.87;;;14.97;;
6463;SDS011;3265;42.694;23.282;2023-04-24T05:16:39;23.57;;;13.67;;
6463;SDS011;3265;42.694;23.282;2023-04-24T05:19:07;25.93;;;13.30;;
6463;SDS011;3265;42.694;23.282;2023-04-24T05:21:35;32.23;;;13.07;;
6463;SDS011;3265;42.694;23.282;2023-04-24T05:24:02;28.17;;;13.23;;
6463;SDS011;3265;42.694;23.282;2023-04-24T05:26:29;28.40;;;13.53;;
6463;SDS011;3265;42.694;23.282;2023-04-24T05:28:56;23.90;;;12.43;;
6463;SDS011;3265;42.694;23.282;2023-04-24T05:31:23;28.70;;;13.37;;
6463;SDS011;3265;42.694;23.282;2023-04-24T05:33:50;23.37;;;12.77;;
6463;SDS011;3265;42.694;23.282;2023-04-24T05:36:19;28.47;;;12.87;;
6463;SDS011;3265;42.694;23.282;2023-04-24T05:38:46;27.90;;;13.47;;
6463;SDS011;3265;42.694;23.282;2023-04-24T05:41:12;26.27;;;12.60;;
6463;SDS011;3265;42.694;23.282;2023-04-24T05:43:40;16.50;;;8.80;;
6463;SDS011;3265;42.694;23.282;2023-04-24T05:46:06;13.67;;;8.37;;
6463;SDS011;3265;42.694;23.282;2023-04-24T05:48:33;15.33;;;9.10;;
6463;SDS011;3265;42.694;23.282;2023-04-24T05:51:00;17.07;;;9.50;;
6463;SDS011;3265;42.694;23.282;2023-04-24T05:53:29;12.23;;;8.90;;
6463;SDS011;3265;42.694;23.282;2023-04-24T05:55:55;22.53;;;9.03;;
6463;SDS011;3265;42.694;23.282;2023-04-24T05:58:22;20.27;;;9.80;;
6463;SDS011;3265;42.694;23.282;2023-04-24T06:00:49;18.10;;;9.20;;
6463;SDS011;3265;42.694;23.282;2023-04-24T06:03:16;15.33;;;8.53;;
6463;SDS011;3265;42.694;23.282;2023-04-24T06:05:43;16.33;;;9.53;;
6463;SDS011;3265;42.694;23.282;2023-04-24T06:08:10;15.53;;;8.70;;
6463;SDS011;3265;42.694;23.282;2023-04-24T06:10:38;17.03;;;9.43;;
6463;SDS011;3265;42.694;23.282;2023-04-24T06:13:05;25.73;;;9.40;;
6463;SDS011;3265;42.694;23.282;2023-04-24T06:15:32;14.70;;;8.83;;
6463;SDS011;3265;42.694;23.282;2023-04-24T06:17:59;17.13;;;8.87;;
6463;SDS011;3265;42.694;23.282;2023-04-24T06:20:26;17.73;;;9.10;;
6463;SDS011;3265;42.694;23.282;2023-04-24T06:22:53;23.10;;;11.43;;
6463;SDS011;3265;42.694;23.282;2023-04-24T06:25:20;14.57;;;9.47;;
6463;SDS011;3265;42.694;23.282;2023-04-24T06:27:48;16.37;;;10.10;;
6463;SDS011;3265;42.694;23.282;2023-04-24T06:30:15;15.93;;;9.53;;
6463;SDS011;3265;42.694;23.282;2023-04-24T06:32:42;17.83;;;9.90;;
6463;SDS011;3265;42.694;23.282;2023-04-24T06:35:09;18.53;;;9.50;;
6463;SDS011;3265;42.694;23.282;2023-04-24T06:37:37;14.20;;;9.30;;
6463;SDS011;3265;42.694;23.282;2023-04-24T06:40:05;16.23;;;9.30;;
6463;SDS011;3265;42.694;23.282;2023-04-24T06:42:33;19.27;;;9.20;;
6463;SDS011;3265;42.694;23.282;2023-04-24T06:45:02;16.90;;;9.37;;
6463;SDS011;3265;42.694;23.282;2023-04-24T06:47:30;16.87;;;8.33;;
6463;SDS011;3265;42.694;23.282;2023-04-24T06:49:56;14.90;;;8.47;;
6463;SDS011;3265;42.694;23.282;2023-04-24T06:52:23;15.37;;;8.83;;
6463;SDS011;3265;42.694;23.282;2023-04-24T06:54:50;14.50;;;9.17;;
6463;SDS011;3265;42.694;23.282;2023-04-24T06:57:17;15.40;;;9.07;;
6463;SDS011;3265;42.694;23.282;2023-04-24T06:59:44;15.27;;;8.63;;
6463;SDS011;3265;42.694;23.282;2023-04-24T07:02:12;17.53;;;8.80;;
6463;SDS011;3265;42.694;23.282;2023-04-24T07:04:39;13.30;;;8.43;;
6463;SDS011;3265;42.694;23.282;2023-04-24T07:07:06;14.57;;;9.10;;
6463;SDS011;3265;42.694;23.282;2023-04-24T07:09:34;20.13;;;10.40;;
6463;SDS011;3265;42.694;23.282;2023-04-24T07:12:03;16.23;;;9.60;;
6463;SDS011;3265;42.694;23.282;2023-04-24T07:14:31;16.37;;;9.50;;
6463;SDS011;3265;42.694;23.282;2023-04-24T07:16:57;19.63;;;9.50;;
6463;SDS011;3265;42.694;23.282;2023-04-24T07:19:25;14.53;;;8.80;;
6463;SDS011;3265;42.694;23.282;2023-04-24T07:21:52;17.70;;;9.70;;
6463;SDS011;3265;42.694;23.282;2023-04-24T07:24:20;19.80;;;9.63;;
6463;SDS011;3265;42.694;23.282;2023-04-24T07:26:47;15.67;;;9.53;;
6463;SDS011;3265;42.694;23.282;2023-04-24T07:29:13;20.00;;;9.67;;
6463;SDS011;3265;42.694;23.282;2023-04-24T07:31:40;16.50;;;9.60;;
6463;SDS011;3265;42.694;23.282;2023-04-24T07:34:07;16.87;;;9.93;;
6463;SDS011;3265;42.694;23.282;2023-04-24T07:36:35;16.10;;;9.40;;
6463;SDS011;3265;42.694;23.282;2023-04-24T07:39:03;17.43;;;9.57;;
6463;SDS011;3265;42.694;23.282;2023-04-24T07:41:31;19.23;;;9.50;;
6463;SDS011;3265;42.694;23.282;2023-04-24T07:43:57;16.23;;;9.60;;
6463;SDS011;3265;42.694;23.282;2023-04-24T07:46:24;21.40;;;9.43;;
6463;SDS011;3265;42.694;23.282;2023-04-24T07:48:54;19.43;;;9.93;;
6463;SDS011;3265;42.694;23.282;2023-04-24T07:51:21;20.50;;;10.87;;
6463;SDS011;3265;42.694;23.282;2023-04-24T07:53:49;21.67;;;11.03;;
6463;SDS011;3265;42.694;23.282;2023-04-24T07:56:16;16.53;;;10.03;;
6463;SDS011;3265;42.694;23.282;2023-04-24T07:58:43;20.20;;;10.27;;
6463;SDS011;3265;42.694;23.282;2023-04-24T08:01:10;15.10;;;9.33;;
6463;SDS011;3265;42.694;23.282;2023-04-24T08:03:37;17.13;;;10.10;;
6463;SDS011;3265;42.694;23.282;2023-04-24T08:06:03;14.03;;;10.07;;
6463;SDS011;3265;42.694;23.282;2023-04-24T08:08:31;13.70;;;9.03;;
6463;SDS011;3265;42.694;23.282;2023-04-24T08:10:59;15.60;;;9.53;;
6463;SDS011;3265;42.694;23.282;2023-04-24T08:13:26;16.73;;;8.97;;
6463;SDS011;3265;42.694;23.282;2023-04-24T08:15:53;17.20;;;8.93;;
6463;SDS011;3265;42.694;23.282;2023-04-24T08:18:20;19.00;;;9.20;;
6463;SDS011;3265;42.694;23.282;2023-04-24T08:20:47;13.17;;;9.10;;
6463;SDS011;3265;42.694;23.282;2023-04-24T08:23:13;18.37;;;8.83;;
6463;SDS011;3265;42.694;23.282;2023-04-24T08:25:40;12.73;;;9.00;;
6463;SDS011;3265;42.694;23.282;2023-04-24T08:28:08;13.03;;;8.90;;
6463;SDS011;3265;42.694;23.282;2023-04-24T08:30:36;15.07;;;8.83;;
6463;SDS011;3265;42.694;23.282;2023-04-24T08:33:03;20.10;;;9.60;;
6463;SDS011;3265;42.694;23.282;2023-04-24T08:35:30;15.83;;;9.00;;
6463;SDS011;3265;42.694;23.282;2023-04-24T08:37:57;16.87;;;9.23;;
6463;SDS011;3265;42.694;23.282;2023-04-24T08:40:26;12.70;;;9.00;;
6463;SDS011;3265;42.694;23.282;2023-04-24T08:42:55;15.70;;;8.97;;
6463;SDS011;3265;42.694;23.282;2023-04-24T08:45:24;16.50;;;8.97;;
6463;SDS011;3265;42.694;23.282;2023-04-24T08:47:51;13.87;;;8.50;;
6463;SDS011;3265;42.694;23.282;2023-04-24T08:50:19;16.60;;;9.07;;
6463;SDS011;3265;42.694;23.282;2023-04-24T08:52:47;16.90;;;9.10;;
6463;SDS011;3265;42.694;23.282;2023-04-24T08:55:15;14.23;;;8.80;;
6463;SDS011;3265;42.694;23.282;2023-04-24T08:57:44;17.23;;;9.17;;
6463;SDS011;3265;42.694;23.282;2023-04-24T09:00:14;15.40;;;8.60;;
6463;SDS011;3265;42.694;23.282;2023-04-24T09:02:43;16.20;;;9.13;;
6463;SDS011;3265;42.694;23.282;2023-04-24T09:05:13;16.43;;;8.73;;
6463;SDS011;3265;42.694;23.282;2023-04-24T09:07:43;17.30;;;8.73;;
6463;SDS011;3265;42.694;23.282;2023-04-24T09:10:12;11.27;;;7.83;;
6463;SDS011;3265;42.694;23.282;2023-04-24T09:12:39;12.77;;;8.23;;
6463;SDS011;3265;42.694;23.282;2023-04-24T09:15:08;14.33;;;8.13;;
6463;SDS011;3265;42.694;23.282;2023-04-24T09:17:35;12.97;;;8.13;;
6463;SDS011;3265;42.694;23.282;2023-04-24T09:20:04;13.77;;;8.10;;
6463;SDS011;3265;42.694;23.282;2023-04-24T09:22:32;12.05;;;8.30;;
6463;SDS011;3265;42.694;23.282;2023-04-24T09:25:02;12.10;;;7.68;;
6463;SDS011;3265;42.694;23.282;2023-04-24T09:27:31;15.73;;;8.73;;
6463;SDS011;3265;42.694;23.282;2023-04-24T09:29:59;19.97;;;8.87;;
6463;SDS011;3265;42.694;23.282;2023-04-24T09:32:27;13.25;;;8.15;;
6463;SDS011;3265;42.694;23.282;2023-04-24T09:35:09;15.27;;;8.18;;
6463;SDS011;3265;42.694;23.282;2023-04-24T09:37:38;14.05;;;7.22;;
6463;SDS011;3265;42.694;23.282;2023-04-24T09:40:07;14.13;;;7.70;;
6463;SDS011;3265;42.694;23.282;2023-04-24T09:42:35;11.98;;;7.32;;
6463;SDS011;3265;42.694;23.282;2023-04-24T09:45:02;9.82;;;6.97;;
6463;SDS011;3265;42.694;23.282;2023-04-24T09:47:30;9.30;;;7.20;;
6463;SDS011;3265;42.694;23.282;2023-04-24T09:50:10;15.48;;;8.20;;
6463;SDS011;3265;42.694;23.282;2023-04-24T09:52:41;10.80;;;7.05;;
6463;SDS011;3265;42.694;23.282;2023-04-24T09:55:16;8.73;;;6.65;;
6463;SDS011;3265;42.694;23.282;2023-04-24T09:57:48;10.27;;;7.63;;
6463;SDS011;3265;42.694;23.282;2023-04-24T10:00:23;13.60;;;6.90;;
6463;SDS011;3265;42.694;23.282;2023-04-24T10:02:54;9.88;;;6.95;;
6463;SDS011;3265;42.694;23.282;2023-04-24T10:05:24;10.15;;;6.50;;
6463;SDS011;3265;42.694;23.282;2023-04-24T10:07:55;13.40;;;6.70;;
6463;SDS011;3265;42.694;23.282;2023-04-24T10:10:23;12.32;;;6.78;;
6463;SDS011;3265;42.694;23.282;2023-04-24T10:12:50;17.90;;;7.20;;
6463;SDS011;3265;42.694;23.282;2023-04-24T10:15:18;8.35;;;6.57;;
6463;SDS011;3265;42.694;23.282;2023-04-24T10:17:46;10.40;;;6.25;;
6463;SDS011;3265;42.694;23.282;2023-04-24T10:20:17;12.18;;;6.15;;
6463;SDS011;3265;42.694;23.282;2023-04-24T10:22:48;8.50;;;5.72;;
6463;SDS011;3265;42.694;23.282;2023-04-24T10:25:19;16.35;;;6.65;;
6463;SDS011;3265;42.694;23.282;2023-04-24T10:27:47;14.57;;;6.40;;
6463;SDS011;3265;42.694;23.282;2023-04-24T10:30:15;13.02;;;5.95;;
6463;SDS011;3265;42.694;23.282;2023-04-24T10:32:42;11.90;;;6.10;;
6463;SDS011;3265;42.694;23.282;2023-04-24T10:35:10;14.07;;;6.20;;
6463;SDS011;3265;42.694;23.282;2023-04-24T10:37:40;11.15;;;6.10;;
6463;SDS011;3265;42.694;23.282;2023-04-24T10:40:11;12.50;;;6.10;;
6463;SDS011;3265;42.694;23.282;2023-04-24T10:42:42;14.85;;;6.20;;
6463;SDS011;3265;42.694;23.282;2023-04-24T10:45:16;14.77;;;6.50;;
6463;SDS011;3265;42.694;23.282;2023-04-24T10:47:50;8.27;;;6.10;;
6463;SDS011;3265;42.694;23.282;2023-04-24T10:50:18;12.02;;;5.63;;
6463;SDS011;3265;42.694;23.282;2023-04-24T10:52:45;10.93;;;5.88;;
6463;SDS011;3265;42.694;23.282;2023-04-24T10:55:14;12.57;;;6.28;;
6463;SDS011;3265;42.694;23.282;2023-04-24T11:00:29;11.02;;;5.90;;
6463;SDS011;3265;42.694;23.282;2023-04-24T11:02:56;8.45;;;5.65;;
6463;SDS011;3265;42.694;23.282;2023-04-24T11:05:48;9.20;;;5.40;;
6463;SDS011;3265;42.694;23.282;2023-04-24T11:08:23;9.85;;;5.13;;
6463;SDS011;3265;42.694;23.282;2023-04-24T11:10:57;7.13;;;5.40;;
6463;SDS011;3265;42.694;23.282;2023-04-24T11:13:27;7.22;;;5.07;;
6463;SDS011;3265;42.694;23.282;2023-04-24T11:16:15;8.95;;;4.57;;
6463;SDS011;3265;42.694;23.282;2023-04-24T11:18:50;12.13;;;7.38;;
6463;SDS011;3265;42.694;23.282;2023-04-24T11:21:19;14.75;;;6.07;;
6463;SDS011;3265;42.694;23.282;2023-04-24T11:23:46;6.55;;;5.28;;
6463;SDS011;3265;42.694;23.282;2023-04-24T11:26:17;7.87;;;4.97;;
6463;SDS011;3265;42.694;23.282;2023-04-24T11:28:46;8.70;;;5.67;;
6463;SDS011;3265;42.694;23.282;2023-04-24T11:34:05;10.23;;;5.93;;
6463;SDS011;3265;42.694;23.282;2023-04-24T11:36:37;6.63;;;5.03;;
6463;SDS011;3265;42.694;23.282;2023-04-24T11:39:04;6.47;;;4.87;;
6463;SDS011;3265;42.694;23.282;2023-04-24T11:41:33;5.85;;;4.90;;
6463;SDS011;3265;42.694;23.282;2023-04-24T11:44:00;8.85;;;5.10;;
6463;SDS011;3265;42.694;23.282;2023-04-24T11:46:28;6.67;;;4.80;;
6463;SDS011;3265;42.694;23.282;2023-04-24T11:48:57;13.68;;;5.57;;
6463;SDS011;3265;42.694;23.282;2023-04-24T11:51:25;6.82;;;5.38;;
6463;SDS011;3265;42.694;23.282;2023-04-24T11:53:52;5.95;;;5.05;;
6463;SDS011;3265;42.694;23.282;2023-04-24T11:56:20;6.00;;;5.38;;
6463;SDS011;3265;42.694;23.282;2023-04-24T11:58:51;5.05;;;4.50;;
6463;SDS011;3265;42.694;23.282;2023-04-24T12:01:19;5.63;;;4.85;;
6463;SDS011;3265;42.694;23.282;2023-04-24T12:03:47;10.30;;;5.68;;
6463;SDS011;3265;42.694;23.282;2023-04-24T12:06:16;7.00;;;5.10;;
6463;SDS011;3265;42.694;23.282;2023-04-24T12:08:45;7.22;;;5.40;;
6463;SDS011;3265;42.694;23.282;2023-04-24T12:11:14;7.30;;;5.28;;
6463;SDS011;3265;42.694;23.282;2023-04-24T12:13:43;14.45;;;5.32;;
6463;SDS011;3265;42.694;23.282;2023-04-24T12:16:11;6.03;;;5.20;;
6463;SDS011;3265;42.694;23.282;2023-04-24T12:18:42;9.07;;;5.15;;
6463;SDS011;3265;42.694;23.282;2023-04-24T12:21:17;7.53;;;5.50;;
6463;SDS011;3265;42.694;23.282;2023-04-24T12:23:45;8.68;;;5.10;;
6463;SDS011;3265;42.694;23.282;2023-04-24T12:26:14;10.00;;;5.68;;
6463;SDS011;3265;42.694;23.282;2023-04-24T12:28:42;6.10;;;4.82;;
6463;SDS011;3265;42.694;23.282;2023-04-24T12:31:13;6.13;;;5.10;;
6463;SDS011;3265;42.694;23.282;2023-04-24T12:33:40;8.48;;;4.68;;
6463;SDS011;3265;42.694;23.282;2023-04-24T12:36:09;6.55;;;5.10;;
6463;SDS011;3265;42.694;23.282;2023-04-24T12:38:37;8.18;;;5.60;;
6463;SDS011;3265;42.694;23.282;2023-04-24T12:41:06;6.40;;;5.28;;
6463;SDS011;3265;42.694;23.282;2023-04-24T12:43:35;6.53;;;4.72;;
6463;SDS011;3265;42.694;23.282;2023-04-24T12:46:02;6.55;;;4.95;;
6463;SDS011;3265;42.694;23.282;2023-04-24T12:48:33;5.60;;;5.10;;
6463;SDS011;3265;42.694;23.282;2023-04-24T12:51:00;7.60;;;4.60;;
6463;SDS011;3265;42.694;23.282;2023-04-24T12:53:27;7.28;;;4.68;;
6463;SDS011;3265;42.694;23.282;2023-04-24T12:55:56;10.30;;;4.80;;
6463;SDS011;3265;42.694;23.282;2023-04-24T12:58:24;6.05;;;4.95;;
6463;SDS011;3265;42.694;23.282;2023-04-24T13:00:51;6.95;;;5.32;;
6463;SDS011;3265;42.694;23.282;2023-04-24T13:03:18;9.40;;;5.53;;
6463;SDS011;3265;42.694;23.282;2023-04-24T13:05:47;5.75;;;5.18;;
6463;SDS011;3265;42.694;23.282;2023-04-24T13:08:13;7.35;;;5.30;;
6463;SDS011;3265;42.694;23.282;2023-04-24T13:10:42;7.65;;;5.13;;
6463;SDS011;3265;42.694;23.282;2023-04-24T13:13:09;10.02;;;4.88;;
6463;SDS011;3265;42.694;23.282;2023-04-24T13:15:36;6.32;;;4.50;;
6463;SDS011;3265;42.694;23.282;2023-04-24T13:18:03;7.45;;;4.65;;
6463;SDS011;3265;42.694;23.282;2023-04-24T13:20:30;7.00;;;4.72;;
6463;SDS011;3265;42.694;23.282;2023-04-24T13:22:58;5.20;;;4.63;;
6463;SDS011;3265;42.694;23.282;2023-04-24T13:25:25;5.30;;;4.80;;
6463;SDS011;3265;42.694;23.282;2023-04-24T13:27:52;18.20;;;4.68;;
6463;SDS011;3265;42.694;23.282;2023-04-24T13:30:19;7.68;;;4.65;;
6463;SDS011;3265;42.694;23.282;2023-04-24T13:32:46;7.22;;;4.65;;
6463;SDS011;3265;42.694;23.282;2023-04-24T13:35:13;5.55;;;4.63;;
6463;SDS011;3265;42.694;23.282;2023-04-24T13:37:40;7.35;;;4.78;;
6463;SDS011;3265;42.694;23.282;2023-04-24T13:40:08;8.05;;;4.53;;
6463;SDS011;3265;42.694;23.282;2023-04-24T13:42:36;6.97;;;4.45;;
6463;SDS011;3265;42.694;23.282;2023-04-24T13:45:03;6.55;;;4.38;;
6463;SDS011;3265;42.694;23.282;2023-04-24T13:47:30;8.18;;;5.30;;
6463;SDS011;3265;42.694;23.282;2023-04-24T13:49:57;8.68;;;5.65;;
6463;SDS011;3265;42.694;23.282;2023-04-24T13:52:24;16.05;;;12.65;;
6463;SDS011;3265;42.694;23.282;2023-04-24T13:54:51;10.43;;;8.13;;
6463;SDS011;3265;42.694;23.282;2023-04-24T13:57:19;10.13;;;6.88;;
6463;SDS011;3265;42.694;23.282;2023-04-24T13:59:46;6.82;;;5.20;;
6463;SDS011;3265;42.694;23.282;2023-04-24T14:02:13;7.13;;;4.90;;
6463;SDS011;3265;42.694;23.282;2023-04-24T14:04:40;7.00;;;4.63;;
6463;SDS011;3265;42.694;23.282;2023-04-24T14:07:07;5.18;;;4.13;;
6463;SDS011;3265;42.694;23.282;2023-04-24T14:09:34;7.38;;;4.13;;
6463;SDS011;3265;42.694;23.282;2023-04-24T14:12:01;5.43;;;3.92;;
6463;SDS011;3265;42.694;23.282;2023-04-24T14:14:30;8.80;;;4.13;;
6463;SDS011;3265;42.694;23.282;2023-04-24T14:16:56;6.60;;;4.28;;
6463;SDS011;3265;42.694;23.282;2023-04-24T14:19:23;9.10;;;4.47;;
6463;SDS011;3265;42.694;23.282;2023-04-24T14:21:50;6.35;;;4.65;;
6463;SDS011;3265;42.694;23.282;2023-04-24T14:24:17;8.48;;;3.80;;
6463;SDS011;3265;42.694;23.282;2023-04-24T14:26:44;5.95;;;3.83;;
6463;SDS011;3265;42.694;23.282;2023-04-24T14:29:11;7.28;;;3.88;;
6463;SDS011;3265;42.694;23.282;2023-04-24T14:31:39;5.03;;;4.13;;
6463;SDS011;3265;42.694;23.282;2023-04-24T14:34:06;8.50;;;3.80;;
6463;SDS011;3265;42.694;23.282;2023-04-24T14:36:33;6.38;;;4.43;;
6463;SDS011;3265;42.694;23.282;2023-04-24T14:39:00;7.63;;;4.55;;
6463;SDS011;3265;42.694;23.282;2023-04-24T14:41:30;11.05;;;5.07;;
6463;SDS011;3265;42.694;23.282;2023-04-24T14:43:58;9.02;;;4.88;;
6463;SDS011;3265;42.694;23.282;2023-04-24T14:46:25;9.35;;;5.30;;
6463;SDS011;3265;42.694;23.282;2023-04-24T14:48:53;8.75;;;4.50;;
6463;SDS011;3265;42.694;23.282;2023-04-24T14:51:20;5.90;;;4.03;;
6463;SDS011;3265;42.694;23.282;2023-04-24T14:53:47;10.38;;;4.65;;
6463;SDS011;3265;42.694;23.282;2023-04-24T14:56:14;6.63;;;4.65;;
6463;SDS011;3265;42.694;23.282;2023-04-24T14:58:42;10.15;;;4.53;;
6463;SDS011;3265;42.694;23.282;2023-04-24T15:01:09;7.03;;;4.55;;